Time;durP1;ratioP1;P1;durP2;ratioP2;P2;SDS_P1;SDS_P2;PMS_P1;PMS_P2;Temp;Humidity;BMP_temperature;BMP_pressure;BME280_temperature;BME280_humidity;BME280_pressure;Samples;Min_cycle;Max_cycle;Signal;HPM_P1;HPM_P2
2021/04/17 00:01:09;;;;;;;9.30;5.57;;;;;;;4.50;67.08;98185.19;10404998;28;20037;-75
2021/04/17 00:06:29;;;;;;;8.23;5.68;;;;;;;4.48;67.43;98180.22;10404773;28;20049;-75
2021/04/17 00:11:49;;;;;;;10.80;5.70;;;;;;;4.46;67.27;98174.50;10390940;28;20048;-75
2021/04/17 00:17:10;;;;;;;9.52;5.47;;;;;;;4.48;67.26;98173.94;10404305;28;20049;-75
2021/04/17 00:22:29;;;;;;;7.55;5.20;;;;;;;4.51;67.42;98161.81;10418046;28;20054;-75
2021/04/17 00:27:49;;;;;;;10.82;5.63;;;;;;;4.45;67.86;98161.97;10404131;28;20057;-75
2021/04/17 00:33:09;;;;;;;9.07;5.72;;;;;;;4.45;67.67;98164.00;10403813;28;20046;-75
2021/04/17 00:38:29;;;;;;;9.60;5.28;;;;;;;4.50;67.04;98154.78;10403525;28;20050;-75
2021/04/17 00:43:49;;;;;;;9.23;5.15;;;;;;;4.52;67.66;98152.97;10403490;28;20095;-75
2021/04/17 00:49:09;;;;;;;9.13;4.95;;;;;;;4.57;67.49;98154.84;10389270;28;20060;-76
2021/04/17 00:54:29;;;;;;;8.52;4.90;;;;;;;4.50;67.86;98149.25;10416676;28;20049;-75
2021/04/17 00:59:49;;;;;;;8.63;4.75;;;;;;;4.50;67.34;98152.03;10417659;28;20049;-75
2021/04/17 01:05:09;;;;;;;7.55;4.72;;;;;;;4.53;67.85;98148.16;10415903;28;20489;-75
2021/04/17 01:10:40;;;;;;;8.13;4.55;;;;;;;4.58;67.00;98144.53;10387814;28;20121;-75
2021/04/17 01:16:01;;;;;;;7.20;4.68;;;;;;;4.61;67.61;98140.66;10401820;28;20480;-76
2021/04/17 01:21:21;;;;;;;6.15;4.10;;;;;;;4.60;67.18;98137.16;10401423;28;20053;-76
2021/04/17 01:26:41;;;;;;;8.73;4.25;;;;;;;4.62;67.23;98139.38;10374315;28;20041;-76
2021/04/17 01:32:02;;;;;;;9.38;4.53;;;;;;;4.56;67.53;98139.53;10401494;28;20038;-75
2021/04/17 01:37:51;;;;;;;7.53;4.53;;;;;;;4.57;67.72;98131.97;10374045;28;20053;-75
2021/04/17 01:43:12;;;;;;;7.05;3.75;;;;;;;4.60;67.66;98131.63;10386906;28;20041;-76
2021/04/17 01:48:31;;;;;;;6.28;4.13;;;;;;;4.58;67.36;98128.66;10387143;28;20405;-76
2021/04/17 01:53:51;;;;;;;7.50;3.78;;;;;;;4.56;67.53;98119.44;10387022;28;20037;-75
2021/04/17 01:59:11;;;;;;;6.22;3.58;;;;;;;4.54;67.79;98117.22;10386630;28;20038;-75
2021/04/17 02:04:30;;;;;;;8.52;4.07;;;;;;;4.56;67.72;98120.19;10400546;28;20045;-75
2021/04/17 02:09:50;;;;;;;4.68;3.33;;;;;;;4.61;67.71;98115.78;10372783;28;20060;-75
2021/04/17 02:15:10;;;;;;;5.40;4.03;;;;;;;4.59;67.75;98102.50;10400227;28;20056;-75
2021/04/17 02:20:40;;;;;;;8.75;3.65;;;;;;;4.58;67.75;98105.81;10413598;28;20499;-75
2021/04/17 02:26:00;;;;;;;7.40;3.60;;;;;;;4.63;67.94;98104.16;10386322;28;20096;-75
2021/04/17 02:31:19;;;;;;;5.78;3.35;;;;;;;4.65;67.41;98101.63;10399959;28;20476;-75
2021/04/17 02:36:39;;;;;;;6.00;3.15;;;;;;;4.65;67.11;98094.06;10399834;28;20041;-75
2021/04/17 02:41:59;;;;;;;5.95;3.35;;;;;;;4.67;67.36;98099.78;10361434;28;20551;-76
2021/04/17 02:47:19;;;;;;;5.63;3.50;;;;;;;4.65;66.90;98094.06;10361259;28;20116;-76
2021/04/17 02:52:38;;;;;;;6.47;3.67;;;;;;;4.69;67.34;98099.97;10375235;28;20049;-74
2021/04/17 02:57:59;;;;;;;5.93;3.50;;;;;;;4.71;67.49;98097.38;10379027;28;20093;-76
2021/04/17 03:03:18;;;;;;;5.57;3.13;;;;;;;4.69;67.29;98088.16;10374465;28;20042;-76
2021/04/17 03:08:38;;;;;;;5.72;3.30;;;;;;;4.69;67.23;98091.66;10362286;28;20053;-76
2021/04/17 03:13:58;;;;;;;8.07;3.65;;;;;;;4.72;67.18;98093.34;10374591;28;20143;-77
2021/04/17 03:19:18;;;;;;;7.43;3.47;;;;;;;4.76;67.36;98088.19;10377663;28;20058;-76
2021/04/17 03:24:38;;;;;;;8.45;4.10;;;;;;;4.75;67.23;98092.25;10350159;28;20377;-76
2021/04/17 03:29:58;;;;;;;6.47;3.30;;;;;;;4.75;67.01;98089.50;10374151;28;20053;-75
2021/04/17 03:35:17;;;;;;;7.10;3.92;;;;;;;4.72;66.70;98087.06;10364232;28;20041;-75
2021/04/17 03:40:37;;;;;;;6.10;3.20;;;;;;;4.71;67.04;98102.91;10382419;28;20084;-76
2021/04/17 03:45:57;;;;;;;8.43;3.67;;;;;;;4.71;67.08;98097.38;10379892;28;20485;-75
2021/04/17 03:51:17;;;;;;;6.03;3.38;;;;;;;4.76;67.07;98104.78;10383315;28;20045;-75
2021/04/17 03:56:36;;;;;;;6.93;3.28;;;;;;;4.81;67.01;98108.66;10380136;28;20038;-76
2021/04/17 04:01:56;;;;;;;7.80;3.92;;;;;;;4.81;66.54;98112.19;10351874;28;20084;-76
2021/04/17 04:07:16;;;;;;;8.60;4.07;;;;;;;4.84;66.56;98116.63;10365005;28;20604;-73
2021/04/17 04:12:36;;;;;;;7.38;3.40;;;;;;;4.92;66.40;98110.38;10379570;28;20470;-76
2021/04/17 04:17:56;;;;;;;7.70;3.47;;;;;;;4.92;66.60;98122.16;10384052;28;20531;-75
2021/04/17 04:23:16;;;;;;;5.82;3.03;;;;;;;4.95;66.25;98121.09;10368136;28;20054;-76
2021/04/17 04:28:36;;;;;;;5.93;3.15;;;;;;;4.96;66.14;98125.34;10408701;28;20072;-76
2021/04/17 04:33:56;;;;;;;5.55;3.10;;;;;;;4.98;66.28;98125.53;10367848;28;20068;-76
2021/04/17 04:39:16;;;;;;;4.40;2.70;;;;;;;5.06;66.23;98125.56;10389762;28;20049;-76
2021/04/17 04:44:36;;;;;;;4.75;2.33;;;;;;;5.07;64.88;98127.03;10362078;28;20473;-75
2021/04/17 04:49:56;;;;;;;4.50;2.20;;;;;;;5.06;65.21;98129.06;10372693;28;20042;-75
2021/04/17 04:55:16;;;;;;;5.40;1.90;;;;;;;4.98;64.85;98133.81;10379858;28;20042;-75
2021/04/17 05:00:36;;;;;;;5.40;1.60;;;;;;;4.93;64.39;98142.31;10370862;28;20045;-75
2021/04/17 05:05:56;;;;;;;4.80;1.70;;;;;;;4.86;64.83;98136.19;10377622;28;20574;-75
2021/04/17 05:11:16;;;;;;;3.47;1.25;;;;;;;4.85;65.00;98136.72;10372171;28;20045;-74
2021/04/17 05:16:36;;;;;;;4.45;1.00;;;;;;;4.91;64.81;98131.03;10379111;28;20038;-75
2021/04/17 05:21:56;;;;;;;4.72;1.58;;;;;;;4.94;65.38;98141.00;10365832;28;20057;-75
2021/04/17 05:27:16;;;;;;;5.00;1.50;;;;;;;4.94;65.07;98141.00;10368280;28;20046;-77
2021/04/17 05:32:38;;;;;;;4.20;0.95;;;;;;;4.95;65.14;98146.00;10373355;28;20538;-75
2021/04/17 05:37:57;;;;;;;3.75;1.35;;;;;;;4.94;65.51;98152.09;10392240;28;20404;-75
2021/04/17 05:43:17;;;;;;;5.82;1.83;;;;;;;4.88;65.33;98155.00;10362940;28;20053;-76
2021/04/17 05:48:37;;;;;;;2.90;1.02;;;;;;;4.84;65.38;98157.38;10363120;28;20505;-75
2021/04/17 05:53:57;;;;;;;3.63;1.13;;;;;;;4.73;65.36;98150.16;10391225;28;20049;-75
2021/04/17 05:59:16;;;;;;;3.20;0.85;;;;;;;4.66;65.75;98156.38;10331342;28;20053;-76
2021/04/17 06:04:36;;;;;;;3.15;1.08;;;;;;;4.59;65.66;98157.81;10333058;28;20556;-74
2021/04/17 06:09:56;;;;;;;2.78;1.00;;;;;;;4.50;65.73;98155.53;10333060;28;20445;-75
2021/04/17 06:15:16;;;;;;;1.73;0.80;;;;;;;4.44;66.29;98154.19;10319156;28;20049;-75
2021/04/17 06:20:36;;;;;;;2.63;1.35;;;;;;;4.44;66.48;98157.72;10288566;28;20066;-73
2021/04/17 06:25:55;;;;;;;2.53;1.13;;;;;;;4.53;66.76;98156.47;10292052;28;20058;-73
2021/04/17 06:31:17;;;;;;;1.77;1.00;;;;;;;4.51;66.88;98150.75;10292106;28;20050;-73
2021/04/17 06:36:36;;;;;;;1.45;0.82;;;;;;;4.64;66.76;98156.19;10291618;28;20043;-73
2021/04/17 06:41:56;;;;;;;1.90;1.10;;;;;;;4.96;66.11;98155.03;10291704;28;20042;-74
2021/04/17 06:47:16;;;;;;;1.38;0.70;;;;;;;5.43;66.67;98152.59;10318957;28;20478;-74
2021/04/17 06:52:36;;;;;;;1.92;0.82;;;;;;;5.71;66.11;98151.75;10318931;28;20042;-75
2021/04/17 06:57:57;;;;;;;0.90;0.70;;;;;;;5.91;65.38;98147.34;10304966;28;20444;-73
2021/04/17 07:03:16;;;;;;;1.33;0.82;;;;;;;5.84;65.47;98150.81;10305399;28;20470;-79
2021/04/17 07:08:40;;;;;;;3.28;0.60;;;;;;;5.74;65.37;98141.56;10308839;28;20477;-79
2021/04/17 07:14:10;;;;;;;2.13;0.87;;;;;;;5.83;65.62;98143.06;10327047;28;20047;-80
2021/04/17 07:19:50;;;;;;;2.40;1.02;;;;;;;5.88;65.60;98148.41;10312279;28;20062;-72
2021/04/17 07:25:10;;;;;;;2.20;0.95;;;;;;;5.83;65.13;98152.13;10339396;28;20043;-75
2021/04/17 07:30:31;;;;;;;1.98;0.85;;;;;;;6.01;65.48;98148.28;10338918;28;20043;-73
2021/04/17 07:35:52;;;;;;;1.40;0.90;;;;;;;6.07;65.39;98150.84;10331139;28;20045;-74
2021/04/17 07:41:13;;;;;;;1.70;1.05;;;;;;;6.00;65.21;98151.59;10330257;28;20053;-74
2021/04/17 07:46:44;;;;;;;2.65;1.27;;;;;;;5.86;65.64;98155.81;10311182;28;20038;-74
2021/04/17 07:52:13;;;;;;;2.25;1.23;;;;;;;5.75;65.77;98157.63;10297213;28;20050;-74
2021/04/17 07:57:34;;;;;;;3.53;1.40;;;;;;;5.80;65.63;98152.50;10297442;28;20042;-73
2021/04/17 08:02:55;;;;;;;2.63;1.30;;;;;;;5.91;65.38;98155.66;10310656;28;20042;-73
2021/04/17 08:08:16;;;;;;;2.88;1.33;;;;;;;6.09;65.37;98153.09;10309796;28;20397;-75
2021/04/17 08:13:40;;;;;;;2.90;1.60;;;;;;;6.22;64.98;98161.19;10337232;28;20042;-74
2021/04/17 08:19:00;;;;;;;4.00;1.80;;;;;;;6.28;65.40;98154.19;10309242;28;20062;-74
2021/04/17 08:24:25;;;;;;;3.22;1.77;;;;;;;6.44;64.88;98162.47;10323101;28;20047;-75
2021/04/17 08:29:55;;;;;;;1.83;1.15;;;;;;;6.62;64.52;98163.34;10309277;28;20097;-73
2021/04/17 08:35:25;;;;;;;3.45;1.55;;;;;;;6.64;64.46;98155.22;10337165;28;20038;-74
2021/04/17 08:40:50;;;;;;;2.20;1.50;;;;;;;6.65;64.19;98162.22;10344787;28;20058;-74
2021/04/17 08:46:14;;;;;;;3.60;1.40;;;;;;;6.74;64.18;98147.78;10329783;28;20104;-73
2021/04/17 08:51:37;;;;;;;2.97;1.10;;;;;;;6.86;64.21;98148.88;10348710;28;20038;-74
2021/04/17 08:57:14;;;;;;;2.15;1.10;;;;;;;7.11;63.44;98146.91;10348501;28;20481;-73
2021/04/17 09:02:46;;;;;;;2.42;1.35;;;;;;;7.35;63.40;98158.66;10348429;28;20038;-73
2021/04/17 09:08:15;;;;;;;2.28;1.23;;;;;;;7.71;63.11;98150.66;10335025;28;20050;-72
2021/04/17 09:13:35;;;;;;;2.75;1.33;;;;;;;8.08;62.28;98156.50;10361285;28;20053;-74
2021/04/17 09:18:54;;;;;;;3.13;1.40;;;;;;;8.35;62.08;98150.38;10310399;28;20066;-72
2021/04/17 09:24:25;;;;;;;4.47;1.48;;;;;;;8.54;61.59;98156.13;10326578;28;20046;-72
2021/04/17 09:29:45;;;;;;;3.45;1.30;;;;;;;8.62;60.71;98148.44;10373419;28;20505;-73
2021/04/17 09:35:15;;;;;;;2.83;1.40;;;;;;;8.75;60.91;98156.47;10338166;28;20482;-72
2021/04/17 09:40:44;;;;;;;2.13;1.10;;;;;;;8.49;59.75;98152.28;10320179;28;20053;-73
2021/04/17 09:46:06;;;;;;;3.65;1.20;;;;;;;8.28;60.27;98144.28;10347732;28;20073;-74
2021/04/17 09:51:28;;;;;;;2.72;1.38;;;;;;;8.20;59.97;98146.41;10306240;28;20053;-74
2021/04/17 09:56:48;;;;;;;2.75;1.70;;;;;;;8.02;59.52;98153.97;10319741;28;20050;-73
2021/04/17 10:02:09;;;;;;;4.00;1.52;;;;;;;7.90;59.56;98149.41;10319724;28;20042;-75
2021/04/17 10:07:50;;;;;;;2.33;1.38;;;;;;;7.64;59.35;98137.56;10320216;28;20046;-76
2021/04/17 10:13:10;;;;;;;3.20;1.60;;;;;;;7.69;59.47;98142.16;10318076;28;20054;-76
2021/04/17 10:18:31;;;;;;;2.47;1.70;;;;;;;7.94;58.93;98142.16;10338116;28;20038;-77
2021/04/17 10:24:30;;;;;;;1.80;1.15;;;;;;;7.94;58.53;98141.44;10339301;28;20085;-79
2021/04/17 10:37:13;;;;;;;3.42;1.00;;;;;;;7.55;58.35;98138.19;10293675;28;20055;-76
2021/04/17 10:43:01;;;;;;;2.83;0.93;;;;;;;7.40;57.44;98132.69;10336788;28;20178;-76
2021/04/17 10:48:24;;;;;;;3.33;1.05;;;;;;;7.27;58.20;98130.19;10337971;28;20157;-76
2021/04/17 10:53:50;;;;;;;2.22;1.20;;;;;;;7.24;58.11;98129.28;10324701;28;20046;-76
2021/04/17 10:59:10;;;;;;;2.65;1.40;;;;;;;7.19;57.85;98130.22;10342935;28;20058;-76
2021/04/17 11:04:29;;;;;;;3.58;1.58;;;;;;;7.36;58.28;98129.59;10331806;28;20050;-76
2021/04/17 11:09:49;;;;;;;3.10;1.58;;;;;;;7.85;57.58;98128.16;10324674;28;20072;-76
2021/04/17 11:15:24;;;;;;;2.35;1.65;;;;;;;8.10;57.17;98128.84;10304577;28;20050;-77
2021/04/17 11:21:03;;;;;;;3.63;1.73;;;;;;;8.37;56.46;98131.06;10331550;28;20058;-78
2021/04/17 11:26:26;;;;;;;2.70;1.85;;;;;;;8.24;56.24;98127.25;10332771;28;20420;-76
2021/04/17 11:31:46;;;;;;;3.97;2.10;;;;;;;8.10;56.05;98133.69;10324482;28;20053;-75
2021/04/17 11:37:05;;;;;;;2.83;2.15;;;;;;;7.99;56.19;98126.53;10311562;28;20045;-74
2021/04/17 11:42:26;;;;;;;5.35;2.38;;;;;;;7.85;56.25;98123.31;10354323;28;20053;-74
2021/04/17 11:47:46;;;;;;;4.72;2.30;;;;;;;7.77;56.28;98124.69;10341613;28;20500;-74
2021/04/17 11:53:06;;;;;;;4.68;2.20;;;;;;;7.72;56.16;98127.13;10324003;28;20054;-75
2021/04/17 11:58:26;;;;;;;4.43;2.65;;;;;;;7.85;56.45;98133.72;10347747;28;20497;-75
2021/04/17 12:03:45;;;;;;;4.95;2.85;;;;;;;7.82;56.21;98138.38;10329964;28;20046;-74
2021/04/17 12:09:05;;;;;;;4.00;2.95;;;;;;;7.63;55.81;98132.56;10350880;28;20046;-74
2021/04/17 12:14:25;;;;;;;4.28;2.80;;;;;;;7.59;56.17;98124.63;10346907;28;20042;-75
2021/04/17 12:19:45;;;;;;;6.50;2.38;;;;;;;7.59;56.27;98141.28;10320509;28;20513;-76
2021/04/17 12:25:07;;;;;;;5.50;3.00;;;;;;;7.68;55.82;98137.91;10312696;28;20409;-76
2021/04/17 12:30:27;;;;;;;4.47;2.58;;;;;;;7.63;55.89;98135.34;10321659;28;20030;-76
2021/04/17 12:35:48;;;;;;;3.55;2.55;;;;;;;7.67;55.77;98139.19;10310449;28;20527;-75
2021/04/17 12:41:08;;;;;;;4.95;2.83;;;;;;;7.72;55.72;98141.03;10354886;28;20065;-79
2021/04/17 12:46:28;;;;;;;5.70;2.95;;;;;;;7.84;55.36;98132.25;10337691;28;20050;-78
2021/04/17 12:51:49;;;;;;;5.43;3.03;;;;;;;7.86;55.36;98141.47;10332521;28;20776;-75
2021/04/17 12:57:08;;;;;;;4.18;2.90;;;;;;;7.84;55.12;98141.31;10311652;28;20393;-75
2021/04/17 13:02:32;;;;;;;4.32;3.05;;;;;;;7.95;55.31;98129.00;10325973;28;20426;-73
2021/04/17 13:07:56;;;;;;;5.03;3.00;;;;;;;7.82;55.28;98135.59;10321831;28;20481;-75
2021/04/17 13:13:15;;;;;;;4.40;2.90;;;;;;;7.81;55.21;98131.31;10337548;28;20049;-74
2021/04/17 13:18:35;;;;;;;4.82;3.30;;;;;;;7.73;55.22;98128.59;10350549;28;20398;-74
2021/04/17 13:23:55;;;;;;;3.90;3.05;;;;;;;7.65;55.28;98124.41;10334076;28;20049;-74
2021/04/17 13:29:14;;;;;;;4.18;3.40;;;;;;;7.68;55.83;98126.03;10333960;28;20053;-73
2021/04/17 13:34:35;;;;;;;4.65;3.13;;;;;;;7.65;55.69;98127.91;10333553;28;20382;-73
2021/04/17 13:39:54;;;;;;;4.72;3.60;;;;;;;7.67;55.76;98122.53;10346951;28;20477;-73
2021/04/17 13:45:14;;;;;;;5.72;3.25;;;;;;;7.85;55.78;98122.59;10333072;28;20063;-75
2021/04/17 13:50:34;;;;;;;6.95;4.28;;;;;;;7.85;55.61;98111.47;10333200;28;20481;-77
2021/04/17 13:55:54;;;;;;;3.97;3.00;;;;;;;7.79;55.56;98116.50;10346050;28;20100;-76
2021/04/17 14:01:14;;;;;;;6.10;3.95;;;;;;;7.91;55.82;98109.19;10332898;28;20378;-75
2021/04/17 14:06:34;;;;;;;4.53;3.40;;;;;;;7.97;55.87;98104.16;10346007;28;20053;-75
2021/04/17 14:11:55;;;;;;;5.80;3.28;;;;;;;7.97;55.48;98110.44;10320992;28;20050;-76
2021/04/17 14:17:15;;;;;;;7.53;3.33;;;;;;;8.01;55.70;98102.44;10290998;28;20047;-73
2021/04/17 14:22:36;;;;;;;7.07;4.20;;;;;;;8.02;55.63;98105.97;10351079;28;20054;-73
2021/04/17 14:27:55;;;;;;;6.05;3.42;;;;;;;8.02;55.86;98095.59;10372841;28;20046;-73
2021/04/17 14:33:15;;;;;;;5.72;3.42;;;;;;;8.08;55.60;98100.16;10358516;28;20042;-72
2021/04/17 14:38:35;;;;;;;8.05;4.47;;;;;;;8.18;55.79;98093.38;10358907;28;20045;-75
2021/04/17 14:43:55;;;;;;;5.88;3.88;;;;;;;8.17;55.71;98091.91;10358867;28;20045;-75
2021/04/17 14:49:15;;;;;;;5.07;4.03;;;;;;;8.09;55.67;98088.47;10373208;28;20469;-75
2021/04/17 14:54:37;;;;;;;9.85;4.32;;;;;;;8.05;55.90;98093.69;10359532;28;20048;-75
2021/04/17 14:59:56;;;;;;;6.70;3.90;;;;;;;7.99;55.87;98087.63;10344976;28;20042;-74
2021/04/17 15:05:16;;;;;;;6.50;4.15;;;;;;;7.96;55.75;98088.78;10358749;28;20477;-76
2021/04/17 15:10:38;;;;;;;9.32;4.57;;;;;;;7.94;55.88;98085.84;10347054;28;20445;-78
2021/04/17 15:16:31;;;;;;;8.27;4.07;;;;;;;7.83;55.89;98083.53;10353058;28;20533;-75
2021/04/17 15:21:50;;;;;;;8.95;4.10;;;;;;;7.71;55.90;98089.50;10345752;28;20559;-78
2021/04/17 15:27:10;;;;;;;9.25;4.05;;;;;;;7.61;56.13;98088.66;10333771;28;20065;-75
2021/04/17 15:32:31;;;;;;;8.60;3.78;;;;;;;7.54;56.28;98081.16;10367874;28;20096;-78
2021/04/17 15:38:28;;;;;;;10.07;3.88;;;;;;;7.43;56.19;98082.34;10362174;28;20046;-73
2021/04/17 15:43:48;;;;;;;8.82;4.20;;;;;;;7.35;56.15;98080.91;10338244;28;20096;-74
2021/04/17 15:49:08;;;;;;;7.05;4.00;;;;;;;7.21;56.25;98076.91;10338865;28;20046;-73
2021/04/17 15:54:28;;;;;;;10.20;5.00;;;;;;;7.10;56.66;98070.47;10352337;28;20042;-74
2021/04/17 16:16:33;;;;;;;5.85;4.05;;;;;;;6.84;57.10;98071.72;10377864;28;20046;-76
2021/04/17 16:21:53;;;;;;;8.30;4.97;;;;;;;6.80;57.10;98068.59;10350156;28;20478;-75
2021/04/17 16:27:13;;;;;;;8.77;4.78;;;;;;;6.73;57.30;98068.63;10336745;28;20056;-77
2021/04/17 16:32:33;;;;;;;6.43;3.95;;;;;;;6.71;57.21;98076.78;10336707;28;20038;-74
2021/04/17 16:37:52;;;;;;;6.95;4.28;;;;;;;6.64;57.69;98075.50;10363131;28;20042;-76
2021/04/17 16:43:12;;;;;;;8.45;4.25;;;;;;;6.55;57.79;98068.50;10349230;28;20466;-77
2021/04/17 16:48:32;;;;;;;7.22;4.03;;;;;;;6.56;57.97;98075.56;10362999;28;20050;-75
2021/04/17 16:53:53;;;;;;;8.98;4.05;;;;;;;6.59;58.18;98071.66;10363337;28;20053;-80
2021/04/17 16:59:13;;;;;;;11.20;4.30;;;;;;;6.57;57.98;98084.59;10349704;28;20543;-75
2021/04/17 17:04:33;;;;;;;6.70;4.05;;;;;;;6.50;57.99;98075.00;10348182;28;20046;-72
2021/04/17 17:09:52;;;;;;;7.55;4.20;;;;;;;6.44;58.21;98073.72;10375346;28;20481;-72
2021/04/17 17:15:12;;;;;;;8.98;4.82;;;;;;;6.41;58.19;98083.91;10348166;28;20045;-73
2021/04/17 17:20:32;;;;;;;13.98;5.20;;;;;;;6.36;58.34;98073.00;10331558;28;20062;-80
2021/04/17 17:25:52;;;;;;;8.13;4.40;;;;;;;6.30;58.50;98089.84;10307682;28;20042;-76
2021/04/17 17:31:12;;;;;;;9.60;5.35;;;;;;;6.25;58.79;98079.69;10308543;28;20406;-79
2021/04/17 17:36:35;;;;;;;11.45;5.10;;;;;;;6.26;58.83;98083.94;10358222;28;20050;-82
2021/04/17 17:41:55;;;;;;;8.95;4.55;;;;;;;6.20;59.04;98086.19;10335420;28;20045;-80
2021/04/17 17:47:19;;;;;;;11.25;4.90;;;;;;;6.17;59.41;98098.34;10348493;28;20049;-78
2021/04/17 17:52:42;;;;;;;7.40;4.10;;;;;;;6.14;59.01;98105.03;10321041;28;20058;-78
2021/04/17 17:58:01;;;;;;;9.18;5.18;;;;;;;6.08;59.32;98108.00;10307410;28;20132;-79
2021/04/17 18:03:23;;;;;;;8.23;5.32;;;;;;;6.03;59.49;98101.34;10320571;28;20049;-78
2021/04/17 18:08:42;;;;;;;7.70;4.75;;;;;;;6.02;59.23;98104.66;10307582;28;20485;-75
2021/04/17 18:14:02;;;;;;;8.30;4.95;;;;;;;6.06;59.47;98104.28;10306491;28;20034;-76
2021/04/17 18:19:22;;;;;;;8.15;4.32;;;;;;;6.06;59.61;98112.59;10305971;28;20534;-75
2021/04/17 18:24:43;;;;;;;8.70;4.65;;;;;;;5.99;59.98;98109.28;10319546;28;20042;-76
2021/04/17 18:30:05;;;;;;;13.50;5.30;;;;;;;5.99;60.08;98117.59;10292374;28;20050;-76
2021/04/17 18:35:25;;;;;;;10.20;5.68;;;;;;;5.99;60.15;98120.38;10305300;28;20069;-77
2021/04/17 18:40:45;;;;;;;14.38;6.45;;;;;;;5.97;59.95;98124.97;10306078;28;20505;-77
2021/04/17 18:46:05;;;;;;;12.35;7.50;;;;;;;5.93;60.17;98136.44;10305051;28;20478;-75
2021/04/17 18:51:24;;;;;;;12.07;7.13;;;;;;;5.93;60.18;98136.44;10332370;28;20035;-75
2021/04/17 18:56:44;;;;;;;7.80;5.72;;;;;;;5.95;60.41;98136.63;10318568;28;20034;-75
2021/04/17 19:02:05;;;;;;;11.90;6.15;;;;;;;5.98;60.61;98132.75;10305131;28;20383;-76
2021/04/17 19:07:25;;;;;;;11.23;7.63;;;;;;;5.99;60.44;98139.03;10298891;28;20057;-75
2021/04/17 19:12:45;;;;;;;18.25;10.05;;;;;;;5.98;60.75;98143.84;10329951;28;20445;-78
2021/04/17 19:18:06;;;;;;;20.23;10.65;;;;;;;5.99;60.64;98139.03;10327816;28;20045;-78
2021/04/17 19:23:27;;;;;;;18.00;11.30;;;;;;;6.00;60.79;98144.03;10314509;28;20050;-79
2021/04/17 19:28:47;;;;;;;14.20;9.40;;;;;;;5.97;60.75;98142.34;10301297;28;20414;-76
2021/04/17 19:34:07;;;;;;;18.23;10.52;;;;;;;5.95;61.45;98144.19;10299647;28;20401;-78
2021/04/17 19:39:27;;;;;;;20.55;13.10;;;;;;;5.95;61.15;98147.72;10325564;28;20038;-75
2021/04/17 19:44:48;;;;;;;17.85;10.43;;;;;;;5.93;61.18;98141.97;10298462;28;20046;-75
2021/04/17 19:50:08;;;;;;;18.98;11.40;;;;;;;5.87;61.52;98141.38;10298117;28;20073;-76
2021/04/17 19:55:29;;;;;;;27.45;15.82;;;;;;;5.85;61.34;98143.97;10310845;28;20043;-75
2021/04/17 20:00:49;;;;;;;13.95;8.68;;;;;;;5.81;61.87;98131.81;10324587;28;20058;-76
2021/04/17 20:06:09;;;;;;;16.63;9.07;;;;;;;5.79;61.79;98139.91;10318351;28;20046;-82
2021/04/17 20:11:29;;;;;;;17.35;10.27;;;;;;;5.75;62.36;98135.47;10314673;28;20050;-77
2021/04/17 20:16:49;;;;;;;17.75;10.45;;;;;;;5.75;62.53;98131.97;10311925;28;20039;-76
2021/04/17 20:22:10;;;;;;;17.20;10.10;;;;;;;5.72;62.39;98138.63;10338079;28;20058;-75
2021/04/17 20:27:30;;;;;;;14.10;10.05;;;;;;;5.71;62.77;98137.16;10318065;28;20460;-77
2021/04/17 20:32:49;;;;;;;15.00;9.63;;;;;;;5.76;62.76;98139.00;10325517;28;20042;-76
2021/04/17 20:38:14;;;;;;;14.48;9.23;;;;;;;5.80;62.94;98136.59;10338786;28;20125;-75
2021/04/17 20:43:34;;;;;;;12.68;8.73;;;;;;;5.84;62.57;98136.97;10323762;28;20100;-76
2021/04/17 20:48:54;;;;;;;14.45;8.52;;;;;;;5.88;62.68;98129.00;10309583;28;20548;-76
2021/04/17 20:54:13;;;;;;;14.00;8.68;;;;;;;5.88;62.53;98140.09;10323267;28;20077;-76
2021/04/17 20:59:33;;;;;;;11.25;7.88;;;;;;;5.89;62.88;98144.38;10324307;28;20047;-76
2021/04/17 21:04:53;;;;;;;12.05;8.68;;;;;;;5.84;62.98;98139.72;10323164;28;20050;-78
2021/04/17 21:10:13;;;;;;;14.50;9.60;;;;;;;5.72;63.82;98138.63;10305875;28;20054;-76
2021/04/17 21:15:33;;;;;;;16.48;10.30;;;;;;;5.62;62.91;98151.53;10292664;28;20038;-76
2021/04/17 21:20:53;;;;;;;14.70;10.00;;;;;;;5.56;63.48;98142.66;10306819;28;20414;-76
2021/04/17 21:26:13;;;;;;;16.10;10.38;;;;;;;5.63;63.53;98155.78;10306791;28;20049;-76
2021/04/17 21:31:33;;;;;;;13.63;10.07;;;;;;;5.64;63.88;98149.69;10307637;28;20474;-75
2021/04/17 21:36:53;;;;;;;14.52;10.15;;;;;;;5.64;64.12;98154.50;10307066;28;20393;-75
2021/04/17 21:42:13;;;;;;;15.90;10.88;;;;;;;5.65;64.14;98142.13;10320392;28;20054;-75
2021/04/17 21:47:33;;;;;;;16.92;11.40;;;;;;;5.62;64.06;98137.69;10320759;28;20046;-75
2021/04/17 21:52:52;;;;;;;15.57;10.65;;;;;;;5.63;64.47;98130.84;10293140;28;20045;-75
2021/04/17 21:58:13;;;;;;;15.63;11.05;;;;;;;5.63;64.16;98126.06;10306274;28;20419;-74
2021/04/17 22:03:33;;;;;;;15.90;10.77;;;;;;;5.59;64.32;98127.69;10319830;28;20054;-75
2021/04/17 22:08:53;;;;;;;14.57;10.82;;;;;;;5.59;64.78;98130.47;10306117;28;20100;-75
2021/04/17 22:14:12;;;;;;;16.02;11.57;;;;;;;5.56;65.07;98128.81;10319484;28;20057;-75
2021/04/17 22:19:32;;;;;;;16.52;11.57;;;;;;;5.51;64.86;98126.97;10305547;28;20058;-75
2021/04/17 22:24:52;;;;;;;14.93;10.55;;;;;;;5.54;64.71;98120.31;10305391;28;20053;-75
2021/04/17 22:30:12;;;;;;;15.68;10.50;;;;;;;5.57;64.70;98111.63;10278991;28;20051;-75
2021/04/17 22:35:32;;;;;;;16.13;10.55;;;;;;;5.60;65.07;98104.28;10305967;28;20042;-76
2021/04/17 22:40:52;;;;;;;19.55;12.05;;;;;;;5.60;65.36;98101.50;10303091;28;20042;-76
2021/04/17 22:46:12;;;;;;;16.98;11.65;;;;;;;5.60;65.05;98095.97;10345993;28;20046;-76
2021/04/17 22:51:31;;;;;;;15.05;11.43;;;;;;;5.58;65.34;98095.75;10318548;28;20046;-76
2021/04/17 22:56:52;;;;;;;15.07;10.45;;;;;;;5.59;65.31;98091.69;10318384;28;20050;-76
2021/04/17 23:02:12;;;;;;;16.52;10.80;;;;;;;5.59;65.32;98086.91;10359080;22;20050;-76
2021/04/17 23:07:32;;;;;;;15.63;11.15;;;;;;;5.62;65.21;98093.38;10304515;28;20049;-75
2021/04/17 23:12:52;;;;;;;17.38;11.00;;;;;;;5.59;65.38;98086.91;10318438;28;20046;-75
2021/04/17 23:18:11;;;;;;;16.15;11.23;;;;;;;5.60;65.45;98088.41;10304974;28;20035;-76
2021/04/17 23:23:31;;;;;;;19.98;11.10;;;;;;;5.63;65.65;98092.09;10305068;28;20051;-76
2021/04/17 23:28:55;;;;;;;18.77;11.40;;;;;;;5.59;65.41;98075.09;10304785;28;20079;-76
2021/04/17 23:34:14;;;;;;;19.00;11.73;;;;;;;5.57;65.50;98089.47;10305857;28;20039;-75
2021/04/17 23:39:34;;;;;;;16.20;10.82;;;;;;;5.59;65.43;98081.34;10317830;28;20050;-77
2021/04/17 23:44:54;;;;;;;18.13;11.60;;;;;;;5.55;65.64;98080.25;10317784;28;20046;-76
2021/04/17 23:50:14;;;;;;;19.15;12.32;;;;;;;5.47;66.00;98069.91;10300617;28;20043;-76
2021/04/17 23:55:34;;;;;;;19.60;11.93;;;;;;;5.43;65.84;98075.09;10297846;28;20473;-75
